Atlantic - Newfoundland: Past 24 Hour Conditions

 

Îles de la Madeleine Airport

01:00 PM ADT 22 September 2014
This table is a summary of hourly weather conditions for the past 24 hours.
Date / Time
(ADT)
Wind(knots) Conditions Visibility(km) Pressure(kPa) Air tempC) Relative humidity(%) Dew pointC)
22 September 2014
13:00 WSW 15 Mainly Sunny 19 99.5 19 88 17
12:00 W 18 gust 26 Mist 8 99.4 18 96 18
11:00 SW 18 gust 31 Mostly Cloudy 19 99.3 20 93 19
10:00 SSW 12 gust 19 Partly Cloudy 24 99.2 19 96 18
9:00 SSW 19 gust 35 Light Rainshower 4 99.1 18 96 17
8:00 SSE 30 gust 48 Rainshower 4 99.1 19 96 18
7:00 S 12 gust 26 Rainshower 2 99.5 19 95 18
6:00 SSE 21 gust 34 Rainshower 2 99.7 18 96 18
5:00 SSE 15 gust 23 N/A N/A 99.9 17 99 17
4:00 SE 13 N/A N/A 100.1 16 99 16
3:00 SE 13 gust 18 N/A N/A 100.4 16 99 16
2:00 SSE 17 gust 27 N/A N/A 100.7 17 98 17
1:00 SSE 14 gust 20 N/A N/A 100.9 18 97 17
0:00 SSE 15 gust 21 N/A N/A 101.0 18 96 17
21 September 2014
23:00 SSE 16 gust 26 Partly Cloudy 24 101.2 18 92 17
22:00 S 15 gust 21 Partly Cloudy 24 101.3 18 88 16
21:00 S 16 gust 22 Mainly Clear 24 101.3 17 83 14
20:00 SSW 13 gust 22 Partly Cloudy 24 101.2 18 78 14
19:00 SSW 15 gust 22 Partly Cloudy 24 101.2 18 78 14
18:00 SSW 14 gust 20 Partly Cloudy 24 101.2 19 73 14
17:00 SSW 15 gust 23 Partly Cloudy 24 101.2 18 72 13
16:00 SSW 19 gust 27 Partly Cloudy 24 101.2 20 63 13
15:00 SSW 14 gust 25 Mainly Sunny 32 101.3 20 62 13
14:00 SSW 16 gust 26 Sunny 24 101.3 20 61 12
13:00 SSW 19 gust 30 Sunny 24 101.4 18 69 13
 
Map of Atlantic - Newfoundland marine weather areas Southwestern Grand Banks - 44138 Banquereau - 44139 Tail of the Bank - 44140 Nickerson Bank - 44251 Northeast Burgeo Bank - 44255 Blanc-Sablon Airport Cap Whittle Chevery Natashquan Airport Heath Point Miscou Island Grand Étang Ingonish Beach North Mountain St.Paul Island J.A. Douglas McCurdy Sydney Airport Charlottetown Airport East Point North Cape Argentia Bonavista Burgeo Cape Race Corner Brook Daniel's Harbour Englee Ferolle Point La Scie Port aux Basques Rocky Harbour Sagona Island St. Anthony Airport St. John's Int'l Airport St. Lawrence Stephenville Airport Twillingate Winterland Wreckhouse Cartwright Airport Mary's Harbour Grates Cove Pool's Island Marticot Island Long Pond Îles de la Madeleine Airport
Legend: buoyBuoy land stationLand Station